createdAt,value
2023-01-02T00:00:11.513Z,12.21
2023-01-02T00:01:10.290Z,12.21
2023-01-02T00:02:12.380Z,12.26
2023-01-02T00:03:10.684Z,12.1
2023-01-02T00:04:10.778Z,12.13
2023-01-02T00:05:12.002Z,12.12
2023-01-02T00:06:10.845Z,12.22
2023-01-02T00:07:09.148Z,12.16
2023-01-02T00:08:10.818Z,12.24
2023-01-02T00:09:10.226Z,12.12
2023-01-02T00:10:10.769Z,12.21
2023-01-02T00:11:10.237Z,12.17
2023-01-02T00:12:10.326Z,12.16
2023-01-02T00:13:11.410Z,12.11
2023-01-02T00:14:11.096Z,12.09
2023-01-02T00:15:10.755Z,12.15
2023-01-02T00:16:11.772Z,12.04
2023-01-02T00:17:11.922Z,11.98
2023-01-02T00:18:10.807Z,12.03
2023-01-02T00:19:11.510Z,12.11
2023-01-02T00:20:10.685Z,11.98
2023-01-02T00:21:10.910Z,12.05
2023-01-02T00:22:10.591Z,11.88
2023-01-02T00:23:10.225Z,11.95
2023-01-02T00:24:10.524Z,11.95
2023-01-02T00:25:10.579Z,12.04
2023-01-02T00:26:10.847Z,12.03
2023-01-02T00:27:11.007Z,12.08
2023-01-02T00:28:10.905Z,12.06
2023-01-02T00:30:10.328Z,11.96
2023-01-02T00:31:11.500Z,12
2023-01-02T00:32:10.655Z,12.01
2023-01-02T00:33:10.523Z,11.84
2023-01-02T00:34:10.880Z,11.92
2023-01-02T00:35:10.230Z,11.89
2023-01-02T00:36:10.621Z,11.94
2023-01-02T00:37:11.071Z,11.89
2023-01-02T00:38:10.357Z,11.92
2023-01-02T00:39:11.525Z,11.85
2023-01-02T00:40:10.233Z,11.8
2023-01-02T00:41:10.952Z,11.72
2023-01-02T00:42:11.532Z,11.75
2023-01-02T00:43:11.306Z,11.8
2023-01-02T00:44:10.534Z,11.73
2023-01-02T00:45:11.514Z,11.8
2023-01-02T00:46:12.045Z,11.85
2023-01-02T00:47:10.877Z,11.9
2023-01-02T00:48:10.531Z,11.84
2023-01-02T00:49:10.248Z,11.84
2023-01-02T00:50:10.815Z,11.93
2023-01-02T00:51:10.694Z,11.99
2023-01-02T00:52:10.433Z,11.87
2023-01-02T00:53:11.437Z,11.77
2023-01-02T00:54:10.606Z,11.96
2023-01-02T00:55:10.538Z,11.73
2023-01-02T00:56:10.302Z,11.88
2023-01-02T00:57:11.471Z,11.72
2023-01-02T00:58:10.262Z,11.84
2023-01-02T00:59:11.083Z,11.88
2023-01-02T01:00:10.700Z,11.85
2023-01-02T01:01:10.579Z,11.77
2023-01-02T01:02:13.001Z,11.69
2023-01-02T01:03:11.022Z,11.82
2023-01-02T01:04:10.875Z,11.92
2023-01-02T01:05:10.743Z,11.74
2023-01-02T01:06:11.403Z,11.8
2023-01-02T01:07:10.374Z,11.65
2023-01-02T01:08:10.297Z,11.76
2023-01-02T01:09:10.288Z,11.6
2023-01-02T01:10:11.030Z,11.64
2023-01-02T01:11:10.228Z,11.74
2023-01-02T01:12:10.739Z,11.57
2023-01-02T01:13:10.463Z,11.63
2023-01-02T01:14:10.893Z,11.68
2023-01-02T01:15:11.184Z,11.67
2023-01-02T01:16:11.219Z,11.57
2023-01-02T01:17:11.600Z,11.57
2023-01-02T01:18:10.231Z,11.51
2023-01-02T01:19:10.319Z,11.64
2023-01-02T01:20:10.799Z,11.64
2023-01-02T01:21:11.221Z,11.58
2023-01-02T01:22:10.433Z,11.61
2023-01-02T01:23:10.969Z,11.6
2023-01-02T01:24:10.400Z,11.41
2023-01-02T01:25:10.411Z,11.54
2023-01-02T01:26:10.817Z,11.54
2023-01-02T01:27:10.799Z,11.42
2023-01-02T01:28:11.225Z,11.48
2023-01-02T01:29:10.732Z,11.45
2023-01-02T01:30:10.892Z,11.57
2023-01-02T01:31:10.447Z,11.42
2023-01-02T01:32:10.350Z,11.47
2023-01-02T01:33:10.614Z,11.42
2023-01-02T01:34:11.124Z,11.52
2023-01-02T01:35:10.396Z,11.42
2023-01-02T01:36:11.254Z,11.37
2023-01-02T01:37:11.395Z,11.37
2023-01-02T01:38:10.776Z,11.45
2023-01-02T01:39:11.209Z,11.45
2023-01-02T01:40:10.852Z,11.41
2023-01-02T01:41:10.925Z,11.41
2023-01-02T01:42:10.880Z,11.22
2023-01-02T01:43:10.879Z,11.36
2023-01-02T01:44:10.234Z,11.33
2023-01-02T01:45:10.779Z,11.31
2023-01-02T01:46:10.310Z,11.35
2023-01-02T01:47:10.963Z,11.41
2023-01-02T01:48:10.911Z,11.31
2023-01-02T01:49:10.769Z,11.3
2023-01-02T01:50:10.648Z,11.25
2023-01-02T01:51:10.629Z,11.32
2023-01-02T01:52:11.180Z,11.46
2023-01-02T01:53:11.588Z,11.19
2023-01-02T01:54:11.028Z,11.28
2023-01-02T01:55:10.283Z,11.43
2023-01-02T01:56:10.416Z,11.38
2023-01-02T01:57:10.745Z,11.28
2023-01-02T01:58:10.298Z,11.26
2023-01-02T01:59:09.787Z,11.36
2023-01-02T02:00:11.113Z,11.33
2023-01-02T02:01:11.414Z,11.31
2023-01-02T02:02:12.049Z,11.11
2023-01-02T02:03:10.259Z,11.19
2023-01-02T02:04:11.585Z,11.14
2023-01-02T02:05:11.432Z,11.28
2023-01-02T02:06:11.899Z,11.2
2023-01-02T02:07:10.757Z,11.3
2023-01-02T02:08:11.579Z,11.21
2023-01-02T02:09:10.347Z,11.26
2023-01-02T02:10:10.861Z,11.19
2023-01-02T02:11:10.293Z,11.31
2023-01-02T02:12:10.257Z,11.46
2023-01-02T02:13:12.052Z,11.38
2023-01-02T02:14:11.001Z,11.32
2023-01-02T02:15:10.832Z,11.14
2023-01-02T02:16:10.699Z,11.25
2023-01-02T02:17:11.133Z,11.11
2023-01-02T02:18:10.249Z,11.01
2023-01-02T02:19:10.755Z,11.11
2023-01-02T02:20:10.775Z,11.05
2023-01-02T02:21:10.014Z,10.97
2023-01-02T02:22:11.607Z,11.06
2023-01-02T02:23:10.262Z,10.96
2023-01-02T02:24:11.038Z,10.99
2023-01-02T02:25:11.220Z,10.95
2023-01-02T02:26:11.812Z,10.95
2023-01-02T02:27:10.593Z,11.06
2023-01-02T02:28:11.080Z,10.99
2023-01-02T02:29:10.701Z,10.98
2023-01-02T02:30:11.161Z,10.97
2023-01-02T02:31:11.559Z,10.92
2023-01-02T02:32:10.461Z,10.88
2023-01-02T02:33:10.732Z,10.86
2023-01-02T02:34:10.562Z,10.82
2023-01-02T02:35:10.948Z,10.9
2023-01-02T02:36:10.338Z,10.84
2023-01-02T02:37:11.008Z,10.7
2023-01-02T02:38:10.491Z,10.73
2023-01-02T02:39:10.267Z,10.77
2023-01-02T02:40:10.743Z,10.8
2023-01-02T02:41:10.666Z,10.85
2023-01-02T02:42:10.361Z,10.9
2023-01-02T02:43:10.989Z,10.72
2023-01-02T02:44:09.635Z,10.82
2023-01-02T02:45:11.455Z,10.84
2023-01-02T02:46:10.673Z,10.67
2023-01-02T02:47:11.479Z,10.8
2023-01-02T02:48:10.539Z,10.71
2023-01-02T02:49:10.802Z,10.72
2023-01-02T02:50:10.647Z,10.85
2023-01-02T02:51:12.408Z,10.86
2023-01-02T02:52:10.552Z,10.81
2023-01-02T02:53:10.615Z,10.87
2023-01-02T02:54:10.695Z,10.82
2023-01-02T02:55:11.195Z,10.75
2023-01-02T02:56:10.248Z,10.71
2023-01-02T02:57:11.258Z,10.95
2023-01-02T02:58:11.025Z,10.79
2023-01-02T02:59:11.067Z,10.77
2023-01-02T03:00:11.048Z,10.71
2023-01-02T03:01:10.889Z,10.91
2023-01-02T03:02:11.751Z,10.64
2023-01-02T03:03:10.884Z,10.69
2023-01-02T03:04:10.234Z,10.64
2023-01-02T03:05:10.891Z,10.59
2023-01-02T03:06:09.096Z,10.65
2023-01-02T03:07:10.231Z,10.69
2023-01-02T03:08:11.159Z,10.75
2023-01-02T03:09:11.691Z,10.77
2023-01-02T03:10:10.940Z,10.79
2023-01-02T03:11:10.442Z,10.54
2023-01-02T03:12:10.297Z,10.56
2023-01-02T03:13:11.141Z,10.65
2023-01-02T03:14:11.182Z,10.79
2023-01-02T03:15:10.936Z,10.54
2023-01-02T03:16:10.242Z,10.66
2023-01-02T03:17:10.842Z,10.66
2023-01-02T03:18:11.117Z,10.6
2023-01-02T03:19:11.672Z,10.68
2023-01-02T03:20:11.118Z,10.59
2023-01-02T03:21:10.879Z,10.58
2023-01-02T03:22:10.276Z,10.66
2023-01-02T03:23:10.480Z,10.67
2023-01-02T03:24:10.440Z,10.65
2023-01-02T03:25:10.227Z,10.65
2023-01-02T03:26:10.806Z,10.53
2023-01-02T03:27:10.641Z,10.5
2023-01-02T03:28:10.503Z,10.63
2023-01-02T03:29:11.029Z,10.71
2023-01-02T03:30:10.541Z,10.59
2023-01-02T03:31:11.029Z,10.52
2023-01-02T03:32:10.465Z,10.6
2023-01-02T03:33:10.234Z,10.39
2023-01-02T03:34:11.970Z,10.47
2023-01-02T03:35:10.536Z,10.5
2023-01-02T03:36:11.683Z,10.45
2023-01-02T03:37:10.914Z,10.61
2023-01-02T03:38:10.799Z,10.5
2023-01-02T03:39:11.385Z,10.56
2023-01-02T03:40:10.835Z,10.53
2023-01-02T03:41:10.323Z,10.57
2023-01-02T03:42:10.942Z,10.4
2023-01-02T03:43:10.816Z,10.34
2023-01-02T03:44:10.501Z,10.33
2023-01-02T03:45:10.471Z,10.45
2023-01-02T03:46:10.358Z,10.53
2023-01-02T03:47:11.972Z,10.53
2023-01-02T03:48:10.975Z,10.44
2023-01-02T03:49:10.534Z,10.38
2023-01-02T03:50:11.150Z,10.56
2023-01-02T03:51:10.124Z,10.55
2023-01-02T03:52:11.117Z,10.5
2023-01-02T03:53:10.733Z,10.49
2023-01-02T03:54:10.922Z,10.6
2023-01-02T03:55:10.233Z,10.45
2023-01-02T03:56:10.600Z,10.45
2023-01-02T03:57:11.071Z,10.48
2023-01-02T03:58:10.308Z,10.49
2023-01-02T03:59:10.500Z,10.39
2023-01-02T04:00:11.347Z,10.39
2023-01-02T04:01:11.506Z,10.41
2023-01-02T04:02:10.440Z,10.41
2023-01-02T04:03:10.534Z,10.35
2023-01-02T04:04:11.528Z,10.4
2023-01-02T04:05:10.946Z,10.39
2023-01-02T04:06:11.560Z,10.34
2023-01-02T04:07:10.833Z,10.4
2023-01-02T04:08:10.825Z,10.39
2023-01-02T04:09:10.315Z,10.52
2023-01-02T04:10:10.647Z,10.41
2023-01-02T04:11:11.677Z,10.46
2023-01-02T04:12:10.235Z,10.44
2023-01-02T04:13:10.791Z,10.45
2023-01-02T04:14:10.323Z,10.4
2023-01-02T04:15:10.915Z,10.45
2023-01-02T04:16:10.853Z,10.44
2023-01-02T04:17:10.950Z,10.45
2023-01-02T04:18:10.690Z,10.4
2023-01-02T04:19:11.102Z,10.69
2023-01-02T04:20:10.369Z,10.56
2023-01-02T04:21:10.784Z,10.65
2023-01-02T04:22:11.155Z,10.59
2023-01-02T04:23:11.398Z,10.64
2023-01-02T04:24:10.709Z,10.53
2023-01-02T04:25:10.261Z,10.44
2023-01-02T04:26:11.137Z,10.59
2023-01-02T04:27:10.998Z,10.62
2023-01-02T04:28:10.711Z,10.6
2023-01-02T04:29:10.640Z,10.56
2023-01-02T04:30:10.911Z,10.52
2023-01-02T04:31:10.317Z,10.44
2023-01-02T04:32:11.455Z,10.41
2023-01-02T04:33:10.929Z,10.62
2023-01-02T04:34:10.932Z,10.42
2023-01-02T04:35:11.610Z,10.56
2023-01-02T04:36:11.264Z,10.52
2023-01-02T04:37:10.727Z,10.61
2023-01-02T04:38:10.753Z,10.4
2023-01-02T04:39:10.647Z,10.46
2023-01-02T04:40:11.124Z,10.4
2023-01-02T04:41:11.048Z,10.42
2023-01-02T04:42:11.391Z,10.39
2023-01-02T04:43:10.295Z,10.46
2023-01-02T04:44:11.399Z,10.56
2023-01-02T04:45:10.685Z,10.46
2023-01-02T04:46:10.490Z,10.45
2023-01-02T04:47:13.459Z,10.49
2023-01-02T04:48:11.607Z,10.43
2023-01-02T04:49:11.578Z,10.43
2023-01-02T04:50:11.132Z,10.51
2023-01-02T04:51:10.856Z,10.58
2023-01-02T04:52:11.783Z,10.41
2023-01-02T04:53:10.305Z,10.43
2023-01-02T04:54:11.647Z,10.58
2023-01-02T04:55:10.261Z,10.56
2023-01-02T04:56:10.982Z,10.39
2023-01-02T04:57:10.831Z,10.46
2023-01-02T04:58:10.485Z,10.54
2023-01-02T04:59:11.205Z,10.43
2023-01-02T05:00:10.908Z,10.5
2023-01-02T05:01:10.844Z,10.44
2023-01-02T05:02:10.952Z,10.49
2023-01-02T05:03:11.221Z,10.36
2023-01-02T05:04:11.126Z,10.5
2023-01-02T05:05:10.492Z,10.45
2023-01-02T05:06:11.083Z,10.32
2023-01-02T05:07:11.580Z,10.27
2023-01-02T05:08:15.656Z,10.36
2023-01-02T05:09:10.396Z,10.46
2023-01-02T05:10:10.941Z,10.5
2023-01-02T05:11:10.238Z,10.34
2023-01-02T05:12:10.799Z,10.46
2023-01-02T05:13:10.259Z,10.36
2023-01-02T05:14:10.836Z,10.45
2023-01-02T05:15:10.312Z,10.38
2023-01-02T05:16:10.874Z,10.44
2023-01-02T05:17:10.825Z,10.27
2023-01-02T05:18:10.549Z,10.27
2023-01-02T05:19:11.769Z,10.41
2023-01-02T05:20:10.600Z,10.44
2023-01-02T05:21:09.212Z,10.47
2023-01-02T05:22:11.279Z,10.55
2023-01-02T05:23:10.292Z,10.38
2023-01-02T05:24:10.895Z,10.3
2023-01-02T05:25:10.664Z,10.44
2023-01-02T05:26:10.656Z,10.3
2023-01-02T05:27:11.450Z,10.41
2023-01-02T05:28:10.593Z,10.2
2023-01-02T05:29:10.502Z,10.19
2023-01-02T05:30:11.126Z,10.24
2023-01-02T05:31:11.139Z,10.26
2023-01-02T05:32:11.475Z,10.27
2023-01-02T05:33:10.256Z,10.15
2023-01-02T05:34:11.207Z,10.19
2023-01-02T05:35:12.332Z,10.2
2023-01-02T05:36:10.337Z,10.29
2023-01-02T05:37:10.854Z,10.23
2023-01-02T05:38:10.256Z,10.14
2023-01-02T05:39:10.948Z,10.26
2023-01-02T05:40:11.163Z,10.28
2023-01-02T05:41:10.758Z,10.29
2023-01-02T05:42:10.975Z,10.26
2023-01-02T05:43:10.527Z,10.22
2023-01-02T05:44:10.468Z,10.4
2023-01-02T05:45:10.770Z,10.35
2023-01-02T05:46:10.998Z,10.27
2023-01-02T05:47:16.233Z,10.29
2023-01-02T05:48:10.793Z,10.24
2023-01-02T05:49:11.286Z,10.34
2023-01-02T05:50:10.825Z,10.38
2023-01-02T05:51:11.453Z,10.3
2023-01-02T05:52:10.917Z,10.29
2023-01-02T05:53:11.135Z,10.21
2023-01-02T05:54:11.456Z,10.23
2023-01-02T05:55:10.405Z,10.12
2023-01-02T05:56:10.357Z,10.1
2023-01-02T05:57:11.336Z,10.06
2023-01-02T05:58:11.002Z,10.06
2023-01-02T05:59:11.581Z,10.16
2023-01-02T06:00:10.748Z,9.99
2023-01-02T06:01:11.736Z,10.05
2023-01-02T06:02:11.329Z,10.13
2023-01-02T06:03:11.004Z,10.02
2023-01-02T06:04:17.621Z,10.04
2023-01-02T06:05:10.935Z,10.08
2023-01-02T06:06:10.866Z,10.05
2023-01-02T06:07:11.706Z,10.16
2023-01-02T06:08:11.024Z,10
2023-01-02T06:09:11.314Z,10.11
2023-01-02T06:10:10.640Z,9.9
2023-01-02T06:11:11.020Z,10.05
2023-01-02T06:12:10.940Z,10
2023-01-02T06:13:10.241Z,10.16
2023-01-02T06:14:10.807Z,10.09
2023-01-02T06:15:11.127Z,10.08
2023-01-02T06:16:11.180Z,10.16
2023-01-02T06:17:10.485Z,10.12
2023-01-02T06:18:11.092Z,10.24
2023-01-02T06:19:10.326Z,10.2
2023-01-02T06:20:10.236Z,10.06
2023-01-02T06:21:11.061Z,10.08
2023-01-02T06:22:10.320Z,10.08
2023-01-02T06:23:11.094Z,10.12
2023-01-02T06:24:10.265Z,10.04
2023-01-02T06:25:10.779Z,10.1
2023-01-02T06:26:10.401Z,10.05
2023-01-02T06:27:10.755Z,10.04
2023-01-02T06:28:09.634Z,9.95
2023-01-02T06:29:10.622Z,10.04
2023-01-02T06:30:10.356Z,10.04
2023-01-02T06:31:10.595Z,10.08
2023-01-02T06:32:10.359Z,10.04
2023-01-02T06:33:11.703Z,10.1
2023-01-02T06:34:11.076Z,10.09
2023-01-02T06:35:11.250Z,10.05
2023-01-02T06:36:10.770Z,10.11
2023-01-02T06:37:10.641Z,10.1
2023-01-02T06:38:10.882Z,10.05
2023-01-02T06:39:11.647Z,10.06
2023-01-02T06:40:11.265Z,10.06
2023-01-02T06:41:10.663Z,10.05
2023-01-02T06:42:10.342Z,10.11
2023-01-02T06:43:11.569Z,10.08
2023-01-02T06:44:11.985Z,10.15
2023-01-02T06:45:11.833Z,10.11
2023-01-02T06:46:10.314Z,10.12
2023-01-02T06:47:10.546Z,9.98
2023-01-02T06:48:10.945Z,10.01
2023-01-02T06:49:11.393Z,10
2023-01-02T06:50:10.410Z,10.03
2023-01-02T06:51:12.011Z,9.95
2023-01-02T06:52:10.411Z,10.06
2023-01-02T06:53:11.010Z,10.05
2023-01-02T06:54:10.833Z,10.08
2023-01-02T06:55:10.576Z,10.06
2023-01-02T06:56:10.286Z,10.04
2023-01-02T06:57:10.378Z,10.11
2023-01-02T06:58:17.617Z,10.14
2023-01-02T06:59:10.918Z,10.08
2023-01-02T07:00:11.371Z,10.05
2023-01-02T07:01:10.749Z,10.18
2023-01-02T07:02:11.029Z,10
2023-01-02T07:03:11.576Z,10.08
2023-01-02T07:04:10.767Z,10.09
2023-01-02T07:05:10.835Z,10.07
2023-01-02T07:06:10.874Z,10.13
2023-01-02T07:07:10.268Z,10.15
2023-01-02T07:08:10.771Z,10.22
2023-01-02T07:09:10.697Z,10.24
2023-01-02T07:10:11.026Z,10.23
2023-01-02T07:11:11.182Z,10.21
2023-01-02T07:12:10.791Z,10.21
2023-01-02T07:13:09.178Z,10.17
2023-01-02T07:14:10.715Z,10.13
2023-01-02T07:15:10.519Z,10.23
2023-01-02T07:16:10.323Z,10.19
2023-01-02T07:17:11.302Z,10.16
2023-01-02T07:18:10.522Z,10.13
2023-01-02T07:19:10.329Z,10.2
2023-01-02T07:20:11.384Z,10.19
2023-01-02T07:21:11.089Z,10.18
2023-01-02T07:22:10.309Z,10.19
2023-01-02T07:23:11.048Z,10.22
2023-01-02T07:24:10.303Z,10.19
2023-01-02T07:25:11.058Z,10.27
2023-01-02T07:26:10.957Z,10.26
2023-01-02T07:27:12.017Z,10.45
2023-01-02T07:28:10.353Z,10.31
2023-01-02T07:29:10.717Z,10.29
2023-01-02T07:30:11.050Z,10.19
2023-01-02T07:31:10.813Z,10.28
2023-01-02T07:32:10.634Z,10.22
2023-01-02T07:33:10.924Z,10.19
2023-01-02T07:34:10.966Z,10.13
2023-01-02T07:35:10.583Z,10.2
2023-01-02T07:36:11.884Z,10.3
2023-01-02T07:37:09.514Z,10.29
2023-01-02T07:38:10.256Z,10.22
2023-01-02T07:39:10.272Z,10.27
2023-01-02T07:40:11.439Z,10.35
2023-01-02T07:41:10.962Z,10.26
2023-01-02T07:42:10.313Z,10.28
2023-01-02T07:43:11.307Z,10.27
2023-01-02T07:44:10.321Z,10.26
2023-01-02T07:45:11.167Z,10.3
2023-01-02T07:46:11.832Z,10.27
2023-01-02T07:47:10.766Z,10.26
2023-01-02T07:48:10.520Z,10.28
2023-01-02T07:49:12.208Z,10.25
2023-01-02T07:50:11.312Z,10.21
2023-01-02T07:51:10.567Z,10.21
2023-01-02T07:52:10.668Z,10.29
2023-01-02T07:53:11.311Z,10.25
2023-01-02T07:54:10.946Z,10.25
2023-01-02T07:55:10.966Z,10.31
2023-01-02T07:56:10.516Z,10.23
2023-01-02T07:57:11.053Z,10.19
2023-01-02T07:58:10.248Z,10.2
2023-01-02T07:59:10.332Z,10.26
2023-01-02T08:00:10.672Z,10.26
2023-01-02T08:01:11.593Z,10.25
2023-01-02T08:02:11.889Z,10.21
2023-01-02T08:03:10.373Z,10.28
2023-01-02T08:04:10.293Z,10.3
2023-01-02T08:05:10.397Z,10.31
2023-01-02T08:06:10.270Z,10.27
2023-01-02T08:07:10.840Z,10.33
2023-01-02T08:08:10.252Z,10.28
2023-01-02T08:09:10.555Z,10.34
2023-01-02T08:10:10.422Z,10.3
2023-01-02T08:11:11.281Z,10.3
2023-01-02T08:12:11.445Z,10.38
2023-01-02T08:13:12.804Z,10.32
2023-01-02T08:14:10.249Z,10.36
2023-01-02T08:15:11.517Z,10.31
2023-01-02T08:16:10.490Z,10.3
2023-01-02T08:17:10.367Z,10.34
2023-01-02T08:18:10.236Z,10.34
2023-01-02T08:19:10.298Z,10.34
2023-01-02T08:20:11.353Z,10.36
2023-01-02T08:21:10.845Z,10.34
2023-01-02T08:23:10.589Z,10.38
2023-01-02T08:24:10.900Z,10.37
2023-01-02T08:25:10.309Z,10.38
2023-01-02T08:26:10.719Z,10.44
2023-01-02T08:27:10.266Z,10.45
2023-01-02T08:28:10.640Z,10.47
2023-01-02T08:29:10.623Z,10.48
2023-01-02T08:30:11.275Z,10.49
2023-01-02T08:31:10.353Z,10.44
2023-01-02T08:32:10.842Z,10.52
2023-01-02T08:33:11.228Z,10.47
2023-01-02T08:34:10.248Z,10.51
2023-01-02T08:35:10.769Z,10.47
2023-01-02T08:36:11.006Z,10.47
2023-01-02T08:37:11.134Z,10.56
2023-01-02T08:38:10.270Z,10.53
2023-01-02T08:39:13.151Z,10.49
2023-01-02T08:40:11.639Z,10.51
2023-01-02T08:41:11.151Z,10.52
2023-01-02T08:42:11.155Z,10.54
2023-01-02T08:43:11.073Z,10.58
2023-01-02T08:44:10.079Z,10.55
2023-01-02T08:45:10.798Z,10.58
2023-01-02T08:46:10.727Z,10.62
2023-01-02T08:47:10.734Z,10.67
2023-01-02T08:48:20.997Z,10.65
2023-01-02T08:49:10.283Z,10.66
2023-01-02T08:50:10.698Z,10.67
2023-01-02T08:51:11.070Z,10.7
2023-01-02T08:52:10.249Z,10.73
2023-01-02T08:53:12.862Z,10.74
2023-01-02T08:54:10.747Z,10.81
2023-01-02T08:55:11.670Z,10.85
2023-01-02T08:56:10.259Z,10.86
2023-01-02T08:57:10.281Z,10.89
2023-01-02T08:58:10.470Z,10.92
2023-01-02T08:59:10.495Z,11
2023-01-02T09:00:11.547Z,10.96
2023-01-02T09:01:11.045Z,11
2023-01-02T09:02:11.325Z,11.02
2023-01-02T09:03:10.377Z,11.04
2023-01-02T09:04:12.543Z,11.04
2023-01-02T09:05:10.677Z,11.08
2023-01-02T09:06:10.274Z,11.15
2023-01-02T09:07:11.436Z,11.11
2023-01-02T09:08:10.496Z,11.17
2023-01-02T09:09:12.458Z,11.23
2023-01-02T09:10:10.566Z,11.27
2023-01-02T09:11:10.448Z,11.41
2023-01-02T09:12:10.657Z,11.34
2023-01-02T09:13:11.467Z,11.34
2023-01-02T09:14:10.903Z,11.34
2023-01-02T09:15:10.538Z,11.27
2023-01-02T09:16:10.434Z,11.27
2023-01-02T09:17:11.811Z,11.27
2023-01-02T09:18:11.822Z,11.27
2023-01-02T09:19:10.464Z,11.27
2023-01-02T09:20:10.888Z,11.27
2023-01-02T09:21:10.724Z,11.2
2023-01-02T09:22:12.767Z,11.13
2023-01-02T09:23:10.968Z,11.06
2023-01-02T09:24:11.021Z,10.92
2023-01-02T09:25:10.517Z,10.79
2023-01-02T09:26:10.352Z,10.52
2023-01-02T09:27:10.422Z,10.32
2023-01-02T09:28:10.929Z,10.2
2023-01-02T09:30:10.400Z,9.88
2023-01-02T09:31:12.388Z,9.82
2023-01-02T09:32:10.926Z,9.76
2023-01-02T09:33:11.158Z,9.69
2023-01-02T09:34:10.482Z,9.63
2023-01-02T09:35:11.020Z,9.63
2023-01-02T09:36:11.106Z,9.57
2023-01-02T09:37:10.470Z,9.57
2023-01-02T09:38:11.106Z,9.57
2023-01-02T09:39:10.859Z,9.57
2023-01-02T09:40:10.668Z,9.57
2023-01-02T09:41:10.247Z,9.57
2023-01-02T09:42:10.812Z,9.57
2023-01-02T09:43:10.816Z,9.57
2023-01-02T09:44:10.372Z,9.57
2023-01-02T09:45:10.669Z,9.57
2023-01-02T09:46:10.372Z,9.57
2023-01-02T09:47:10.991Z,9.57
2023-01-02T09:48:10.703Z,9.51
2023-01-02T09:49:11.104Z,9.51
2023-01-02T09:50:11.057Z,9.51
2023-01-02T09:51:11.397Z,9.51
2023-01-02T09:52:10.277Z,9.51
2023-01-02T09:53:10.886Z,9.51
2023-01-02T09:54:10.551Z,9.51
2023-01-02T09:55:11.246Z,9.51
2023-01-02T09:56:10.424Z,9.51
2023-01-02T09:57:10.245Z,9.45
2023-01-02T09:58:10.264Z,9.45
2023-01-02T09:59:11.006Z,9.45
2023-01-02T10:00:11.288Z,9.45
2023-01-02T10:01:10.646Z,9.45
2023-01-02T10:02:10.903Z,9.45
2023-01-02T10:03:10.415Z,9.45
2023-01-02T10:04:10.985Z,9.45
2023-01-02T10:05:11.120Z,9.39
2023-01-02T10:06:11.469Z,9.39
2023-01-02T10:07:10.813Z,9.39
2023-01-02T10:08:10.811Z,9.39
2023-01-02T10:09:10.764Z,9.39
2023-01-02T10:10:11.581Z,9.39
2023-01-02T10:11:10.339Z,9.39
2023-01-02T10:12:11.350Z,9.39
2023-01-02T10:13:12.823Z,9.39
2023-01-02T10:14:20.018Z,9.39
2023-01-02T10:15:10.329Z,9.39
2023-01-02T10:16:11.790Z,9.39
2023-01-02T10:17:10.517Z,9.39
2023-01-02T10:18:10.705Z,9.39
2023-01-02T10:19:10.810Z,9.39
2023-01-02T10:20:11.823Z,9.39
2023-01-02T10:21:10.374Z,9.39
2023-01-02T10:22:11.774Z,9.45
2023-01-02T10:23:10.273Z,9.39
2023-01-02T10:24:10.621Z,9.39
2023-01-02T10:25:11.483Z,9.39
2023-01-02T10:26:10.915Z,9.45
2023-01-02T10:27:10.675Z,9.45
2023-01-02T10:28:10.368Z,9.45
2023-01-02T10:29:10.845Z,9.45
2023-01-02T10:30:10.541Z,9.45
2023-01-02T10:31:11.081Z,9.45
2023-01-02T10:32:10.253Z,9.45
2023-01-02T10:33:11.016Z,9.51
2023-01-02T10:34:11.452Z,9.45
2023-01-02T10:35:11.245Z,9.51
2023-01-02T10:37:11.255Z,9.57
2023-01-02T10:38:10.768Z,9.51
2023-01-02T10:39:10.840Z,9.51
2023-01-02T10:40:10.486Z,9.51
2023-01-02T10:41:10.288Z,9.51
2023-01-02T10:42:11.380Z,9.51
2023-01-02T10:43:10.447Z,9.51
2023-01-02T10:44:11.307Z,9.51
2023-01-02T10:45:10.334Z,9.51
2023-01-02T10:46:11.236Z,9.45
2023-01-02T10:47:10.958Z,9.45
2023-01-02T10:48:10.686Z,9.45
2023-01-02T10:49:11.959Z,9.45
2023-01-02T10:50:10.905Z,9.45
2023-01-02T10:51:11.155Z,9.45
2023-01-02T10:52:10.415Z,9.45
2023-01-02T10:53:11.051Z,9.51
2023-01-02T10:54:10.432Z,9.51
2023-01-02T10:55:10.782Z,9.51
2023-01-02T10:56:10.325Z,9.51
2023-01-02T10:57:12.557Z,9.51
2023-01-02T10:58:11.533Z,9.51
2023-01-02T10:59:10.847Z,9.51
2023-01-02T11:00:11.998Z,9.51
2023-01-02T11:01:10.627Z,9.51
2023-01-02T11:02:11.145Z,9.51
2023-01-02T11:03:11.662Z,9.51
2023-01-02T11:04:10.355Z,9.51
2023-01-02T11:05:11.056Z,9.51
2023-01-02T11:06:26.250Z,9.51
2023-01-02T11:07:10.829Z,9.51
2023-01-02T11:08:10.377Z,9.51
2023-01-02T11:09:10.492Z,9.51
2023-01-02T11:10:11.210Z,9.57
2023-01-02T11:11:10.850Z,9.57
2023-01-02T11:12:10.865Z,9.57
2023-01-02T11:13:10.232Z,9.57
2023-01-02T11:14:10.723Z,9.57
2023-01-02T11:15:10.676Z,9.57
2023-01-02T11:16:10.504Z,9.57
2023-01-02T11:17:11.886Z,9.57
2023-01-02T11:18:10.810Z,9.57
2023-01-02T11:19:11.203Z,9.51
2023-01-02T11:20:09.959Z,9.51
2023-01-02T11:21:10.922Z,9.57
2023-01-02T11:22:10.261Z,9.57
2023-01-02T11:23:10.590Z,9.57
2023-01-02T11:24:10.573Z,9.57
2023-01-02T11:25:10.507Z,9.57
2023-01-02T11:26:10.768Z,9.57
2023-01-02T11:27:11.129Z,9.57
2023-01-02T11:28:10.560Z,9.57
2023-01-02T11:29:10.458Z,9.57
2023-01-02T11:30:11.244Z,9.57
2023-01-02T11:31:10.344Z,9.57
2023-01-02T11:32:11.118Z,9.57
2023-01-02T11:33:12.268Z,9.57
2023-01-02T11:34:11.392Z,9.57
2023-01-02T11:35:11.285Z,9.57
2023-01-02T11:36:10.835Z,9.57
2023-01-02T11:37:10.555Z,9.51
2023-01-02T11:38:10.418Z,9.57
2023-01-02T11:39:10.548Z,9.57
2023-01-02T11:40:10.691Z,9.57
2023-01-02T11:41:11.764Z,9.51
2023-01-02T11:42:11.260Z,9.51
2023-01-02T11:43:10.340Z,9.51
2023-01-02T11:44:17.157Z,9.51
2023-01-02T11:45:10.526Z,9.51
2023-01-02T11:46:10.868Z,9.51
2023-01-02T11:47:11.469Z,9.51
2023-01-02T11:48:10.361Z,9.51
2023-01-02T11:49:10.963Z,9.51
2023-01-02T11:50:10.889Z,9.51
2023-01-02T11:51:14.471Z,9.51
2023-01-02T11:52:10.714Z,9.51
2023-01-02T11:53:11.743Z,9.51
2023-01-02T11:54:11.082Z,9.51
2023-01-02T11:55:10.425Z,9.51
2023-01-02T11:56:11.032Z,9.51
2023-01-02T11:57:15.371Z,9.51
2023-01-02T11:58:10.531Z,9.51
2023-01-02T11:59:11.004Z,9.57
2023-01-02T12:00:10.532Z,9.57
2023-01-02T12:01:10.912Z,9.57
2023-01-02T12:02:10.379Z,9.57
2023-01-02T12:03:18.153Z,9.57
2023-01-02T12:04:10.368Z,9.57
2023-01-02T12:05:10.757Z,9.63
2023-01-02T12:06:10.264Z,9.63
2023-01-02T12:07:10.848Z,9.63
2023-01-02T12:08:11.444Z,9.57
2023-01-02T12:09:11.108Z,9.57
2023-01-02T12:10:11.415Z,9.57
2023-01-02T12:11:10.513Z,9.57
2023-01-02T12:12:10.830Z,9.57
2023-01-02T12:13:10.812Z,9.57
2023-01-02T12:14:11.463Z,9.57
2023-01-02T12:15:10.419Z,9.57
2023-01-02T12:16:11.005Z,9.57
2023-01-02T12:17:11.226Z,9.57
2023-01-02T12:18:10.837Z,9.57
2023-01-02T12:19:11.337Z,9.57
2023-01-02T12:20:11.536Z,9.57
2023-01-02T12:21:11.385Z,9.57
2023-01-02T12:22:11.527Z,9.57
2023-01-02T12:23:11.749Z,9.57
2023-01-02T12:24:11.263Z,9.57
2023-01-02T12:25:11.002Z,9.63
2023-01-02T12:26:11.074Z,9.57
2023-01-02T12:27:10.307Z,9.63
2023-01-02T12:28:10.272Z,9.57
2023-01-02T12:29:10.243Z,9.57
2023-01-02T12:30:11.031Z,9.63
2023-01-02T12:31:10.287Z,9.63
2023-01-02T12:32:11.346Z,9.63
2023-01-02T12:33:10.690Z,9.63
2023-01-02T12:34:10.836Z,9.63
2023-01-02T12:35:11.026Z,9.63
2023-01-02T12:36:10.997Z,9.63
2023-01-02T12:37:10.247Z,9.69
2023-01-02T12:38:10.533Z,9.69
2023-01-02T12:39:10.649Z,9.69
2023-01-02T12:40:10.413Z,9.69
2023-01-02T12:41:10.253Z,9.76
2023-01-02T12:42:10.456Z,9.76
2023-01-02T12:43:10.267Z,9.76
2023-01-02T12:44:10.261Z,9.76
2023-01-02T12:45:11.924Z,9.76
2023-01-02T12:46:11.053Z,9.82
2023-01-02T12:47:10.420Z,9.82
2023-01-02T12:48:10.731Z,9.76
2023-01-02T12:49:09.881Z,9.76
2023-01-02T12:50:10.434Z,9.76
2023-01-02T12:52:10.880Z,9.76
2023-01-02T12:53:10.645Z,9.76
2023-01-02T12:54:20.649Z,9.82
2023-01-02T12:55:11.136Z,9.82
2023-01-02T12:56:11.981Z,9.82
2023-01-02T12:57:10.375Z,9.76
2023-01-02T12:58:10.260Z,9.76
2023-01-02T12:59:10.367Z,9.76
2023-01-02T13:00:10.432Z,9.76
2023-01-02T13:01:10.987Z,9.69
2023-01-02T13:02:11.374Z,9.63
2023-01-02T13:03:14.519Z,9.57
2023-01-02T13:04:10.957Z,9.51
2023-01-02T13:05:10.864Z,9.51
2023-01-02T13:06:45.086Z,9.51
2023-01-02T13:07:11.151Z,9.45